Time;durP1;ratioP1;P1;durP2;ratioP2;P2;SDS_P1;SDS_P2;PMS_P1;PMS_P2;Temp;Humidity;BMP_temperature;BMP_pressure;BME280_temperature;BME280_humidity;BME280_pressure;Samples;Min_cycle;Max_cycle;Signal;HPM_P1;HPM_P2
2022/08/29 00:02:45;;;;;;;29.00;13.32;;;;;;;19.92;100.00;98743.30;2228336;79;20981;-56
2022/08/29 00:05:46;;;;;;;28.32;13.72;;;;;;;19.87;100.00;98742.44;2230201;79;20990;-56
2022/08/29 00:08:46;;;;;;;28.17;14.10;;;;;;;19.89;100.00;98743.11;2228317;79;21498;-57
2022/08/29 00:11:47;;;;;;;26.60;13.25;;;;;;;19.93;100.00;98740.48;2231664;79;21057;-57
2022/08/29 00:14:47;;;;;;;29.48;13.32;;;;;;;19.83;100.00;98746.41;2225852;79;21001;-59
2022/08/29 00:17:48;;;;;;;25.90;12.47;;;;;;;19.76;100.00;98746.65;2228909;79;21043;-59
2022/08/29 00:20:48;;;;;;;26.70;12.03;;;;;;;19.83;100.00;98742.41;2226620;79;20972;-59
2022/08/29 00:23:49;;;;;;;31.48;11.88;;;;;;;19.82;100.00;98742.06;2282636;77;20993;-59
2022/08/29 00:26:49;;;;;;;28.80;12.93;;;;;;;19.83;100.00;98744.56;2192735;81;21011;-57
2022/08/29 00:29:50;;;;;;;26.37;12.28;;;;;;;19.73;100.00;98743.29;2228257;79;21009;-58
2022/08/29 00:32:51;;;;;;;27.20;12.82;;;;;;;19.71;100.00;98741.77;2227113;79;21033;-59
2022/08/29 00:35:51;;;;;;;26.15;12.60;;;;;;;19.72;100.00;98742.97;2230431;79;20981;-58
2022/08/29 00:38:52;;;;;;;26.82;12.50;;;;;;;19.69;100.00;98742.42;2277428;77;21025;-59
2022/08/29 00:41:52;;;;;;;24.27;11.43;;;;;;;19.66;100.00;98750.72;2189451;81;21014;-59
2022/08/29 00:44:52;;;;;;;24.45;11.85;;;;;;;19.61;100.00;98746.34;2206086;80;21522;-58
2022/08/29 00:47:53;;;;;;;20.97;8.68;;;;;;;19.59;100.00;98749.16;2188527;80;21024;-59
2022/08/29 00:50:53;;;;;;;21.27;9.83;;;;;;;19.64;100.00;98753.54;2196825;80;21014;-59
2022/08/29 00:53:54;;;;;;;22.50;9.65;;;;;;;19.60;100.00;98751.34;2191101;81;21102;-58
2022/08/29 00:56:55;;;;;;;22.22;9.43;;;;;;;19.56;100.00;98746.81;2280350;77;20982;-59
2022/08/29 00:59:55;;;;;;;22.35;9.48;;;;;;;19.66;100.00;98749.39;2188580;81;21512;-59
2022/08/29 01:02:56;;;;;;;22.50;9.55;;;;;;;19.58;100.00;98755.45;2197793;80;20985;-58
2022/08/29 01:05:57;;;;;;;22.25;10.15;;;;;;;19.48;100.00;98752.91;2199773;80;21032;-57
2022/08/29 01:08:57;;;;;;;21.42;9.20;;;;;;;19.32;100.00;98757.58;2190109;81;21021;-59
2022/08/29 01:15:00;;;;;;;21.87;9.55;;;;;;;19.39;100.00;98763.11;2215379;79;21001;-58
2022/08/29 01:18:01;;;;;;;21.80;9.63;;;;;;;19.34;100.00;98760.91;2280673;77;21028;-58
2022/08/29 01:21:02;;;;;;;21.93;9.53;;;;;;;19.25;100.00;98761.83;2184144;80;21112;-58
2022/08/29 01:24:04;;;;;;;21.65;9.33;;;;;;;19.20;100.00;98759.59;2275703;77;21020;-58
2022/08/29 01:27:04;;;;;;;23.00;9.65;;;;;;;19.24;100.00;98756.16;2183518;80;21500;-59
2022/08/29 01:30:05;;;;;;;24.75;9.78;;;;;;;19.30;100.00;98758.20;2197457;80;20980;-58
2022/08/29 01:33:05;;;;;;;23.90;10.10;;;;;;;19.26;100.00;98770.62;2203474;80;21051;-57
2022/08/29 01:36:06;;;;;;;21.70;9.00;;;;;;;19.18;100.00;98768.23;2190255;80;21021;-57
2022/08/29 01:39:07;;;;;;;23.20;9.05;;;;;;;19.18;100.00;98769.56;2190463;80;20985;-58
2022/08/29 01:42:09;;;;;;;24.15;9.28;;;;;;;19.12;100.00;98771.50;2228784;79;21090;-57
2022/08/29 01:45:10;;;;;;;21.25;9.20;;;;;;;19.09;100.00;98768.28;2280510;77;21067;-56
2022/08/29 01:48:10;;;;;;;22.32;9.38;;;;;;;19.14;100.00;98767.36;2178941;80;21554;-57
2022/08/29 01:51:11;;;;;;;23.92;9.93;;;;;;;19.04;100.00;98774.87;2202034;80;21012;-58
2022/08/29 01:54:11;;;;;;;22.35;9.45;;;;;;;19.05;100.00;98778.39;2201394;80;21029;-57
2022/08/29 01:57:12;;;;;;;20.25;8.20;;;;;;;19.14;100.00;98776.16;2204048;80;21127;-59
2022/08/29 02:00:12;;;;;;;23.95;8.93;;;;;;;19.09;100.00;98779.74;2205394;80;21012;-59
2022/08/29 02:03:13;;;;;;;20.77;8.40;;;;;;;19.20;100.00;98778.20;2188636;81;21527;-59
2022/08/29 02:06:14;;;;;;;22.13;7.55;;;;;;;19.14;100.00;98784.13;2206804;80;21012;-58
2022/08/29 02:09:14;;;;;;;22.20;8.18;;;;;;;19.10;100.00;98774.78;2205372;80;20988;-57
2022/08/29 02:12:15;;;;;;;21.42;8.48;;;;;;;19.11;100.00;98774.30;2202362;80;20993;-57
2022/08/29 02:15:17;;;;;;;21.50;7.10;;;;;;;19.09;100.00;98781.58;2193046;81;21116;-56
2022/08/29 02:18:17;;;;;;;20.55;7.67;;;;;;;19.03;100.00;98779.02;2205329;80;21124;-56
2022/08/29 02:21:18;;;;;;;21.75;8.75;;;;;;;19.06;100.00;98778.72;2188422;81;21075;-58
2022/08/29 02:24:18;;;;;;;20.12;7.45;;;;;;;19.10;100.00;98777.94;2195791;80;20997;-60
2022/08/29 02:27:18;;;;;;;20.50;7.35;;;;;;;18.99;100.00;98778.50;2191867;80;21020;-60
2022/08/29 02:30:19;;;;;;;19.85;6.58;;;;;;;18.99;100.00;98777.17;2202756;80;21028;-59
2022/08/29 02:33:20;;;;;;;19.92;6.08;;;;;;;18.95;100.00;98778.92;2205871;80;21040;-58
2022/08/29 02:36:20;;;;;;;17.55;5.75;;;;;;;18.93;100.00;98783.56;2204482;80;21563;-57
2022/08/29 02:39:21;;;;;;;16.97;5.37;;;;;;;18.90;100.00;98785.19;2187838;81;21599;-57
2022/08/29 02:42:21;;;;;;;17.17;5.45;;;;;;;18.88;100.00;98780.02;2188735;81;21112;-59
2022/08/29 02:45:22;;;;;;;14.38;5.00;;;;;;;18.80;100.00;98780.70;2203937;80;21065;-57
2022/08/29 02:48:22;;;;;;;14.90;4.85;;;;;;;18.77;100.00;98784.16;2205522;80;20993;-58
2022/08/29 02:51:23;;;;;;;14.35;4.70;;;;;;;18.72;100.00;98779.30;2193099;80;20997;-59
2022/08/29 02:54:23;;;;;;;15.10;5.15;;;;;;;18.78;100.00;98785.34;2197887;80;21475;-58
2022/08/29 02:57:24;;;;;;;14.58;5.22;;;;;;;18.82;100.00;98784.55;2189686;80;21073;-57
2022/08/29 03:00:24;;;;;;;22.42;8.08;;;;;;;18.75;100.00;98790.95;2198347;80;21001;-59
2022/08/29 03:03:26;;;;;;;26.87;10.55;;;;;;;18.78;100.00;98793.31;2198727;80;21086;-58
2022/08/29 03:06:26;;;;;;;24.05;10.40;;;;;;;18.75;100.00;98800.73;2197593;80;21024;-59
2022/08/29 03:09:27;;;;;;;25.37;9.95;;;;;;;18.63;100.00;98795.63;2197868;80;21476;-59
2022/08/29 03:12:27;;;;;;;23.80;10.23;;;;;;;18.63;100.00;98797.42;2198071;80;21088;-59
2022/08/29 03:15:28;;;;;;;22.10;9.38;;;;;;;18.71;100.00;98801.53;2281011;77;21012;-58
2022/08/29 03:18:28;;;;;;;22.98;9.65;;;;;;;18.74;100.00;98808.38;2283350;77;20977;-58
2022/08/29 03:21:29;;;;;;;23.70;10.15;;;;;;;18.66;100.00;98799.31;2279975;78;20968;-59
2022/08/29 03:24:29;;;;;;;26.97;10.70;;;;;;;18.74;100.00;98809.20;2282601;77;21007;-59
2022/08/29 03:27:29;;;;;;;25.75;10.45;;;;;;;18.77;100.00;98812.06;2189289;81;21472;-59
2022/08/29 03:30:31;;;;;;;25.90;11.35;;;;;;;18.76;100.00;98813.03;2206550;80;21574;-59
2022/08/29 03:33:31;;;;;;;24.60;10.40;;;;;;;18.78;100.00;98817.23;2189343;80;21000;-60
2022/08/29 03:36:31;;;;;;;26.30;10.38;;;;;;;18.74;100.00;98826.47;2200217;80;21012;-60
2022/08/29 03:39:32;;;;;;;22.70;9.35;;;;;;;18.68;100.00;98827.88;2197194;80;21068;-59
2022/08/29 03:42:33;;;;;;;21.75;8.93;;;;;;;18.80;100.00;98833.02;2198894;80;21071;-59
2022/08/29 03:45:33;;;;;;;22.87;9.10;;;;;;;18.77;100.00;98841.28;2190433;81;21523;-59
2022/08/29 03:48:34;;;;;;;24.40;9.65;;;;;;;18.75;100.00;98852.06;2203134;80;21012;-59
2022/08/29 03:51:34;;;;;;;23.00;9.28;;;;;;;18.71;100.00;98853.33;2192943;81;21028;-58
2022/08/29 03:54:35;;;;;;;21.87;8.75;;;;;;;18.77;100.00;98846.09;2203033;80;20985;-59
2022/08/29 03:57:36;;;;;;;21.50;9.10;;;;;;;18.81;100.00;98854.62;2192449;80;21001;-59
2022/08/29 04:00:36;;;;;;;20.92;8.48;;;;;;;18.85;100.00;98854.69;2283117;77;21055;-57
2022/08/29 04:03:37;;;;;;;20.40;7.58;;;;;;;18.89;100.00;98849.94;2188180;80;21568;-59
2022/08/29 04:06:37;;;;;;;21.70;8.25;;;;;;;18.91;100.00;98858.11;2204206;80;20996;-58
2022/08/29 04:09:38;;;;;;;21.00;7.65;;;;;;;18.91;100.00;98856.78;2190266;81;21036;-58
2022/08/29 04:12:38;;;;;;;21.20;7.53;;;;;;;18.92;100.00;98857.61;2188414;80;20969;-56
2022/08/29 04:15:39;;;;;;;22.52;7.87;;;;;;;19.03;100.00;98864.07;2202484;80;20985;-56
2022/08/29 04:18:39;;;;;;;20.05;7.08;;;;;;;18.96;100.00;98861.16;2188489;81;21547;-57
2022/08/29 04:21:40;;;;;;;18.92;7.05;;;;;;;18.78;100.00;98865.05;2196719;80;21040;-58
2022/08/29 04:24:40;;;;;;;21.77;7.15;;;;;;;18.69;100.00;98870.74;2198706;80;21036;-59
2022/08/29 04:27:41;;;;;;;20.88;7.62;;;;;;;18.79;100.00;98870.72;2282973;77;21024;-57
2022/08/29 04:30:42;;;;;;;20.57;7.80;;;;;;;18.76;100.00;98875.47;2184049;80;21064;-57
2022/08/29 04:33:42;;;;;;;20.32;7.67;;;;;;;18.79;100.00;98884.00;2207352;80;21065;-58
2022/08/29 04:36:44;;;;;;;21.07;8.60;;;;;;;18.86;100.00;98889.55;2206107;80;21523;-57
2022/08/29 04:39:44;;;;;;;21.35;8.28;;;;;;;18.94;100.00;98892.37;2189656;81;20997;-59
2022/08/29 04:42:45;;;;;;;20.27;8.33;;;;;;;18.91;100.00;98892.66;2205409;80;21025;-59
2022/08/29 04:45:46;;;;;;;20.55;8.63;;;;;;;18.93;100.00;98893.84;2284571;77;21083;-59
2022/08/29 04:48:47;;;;;;;23.55;8.83;;;;;;;18.90;100.00;98896.30;2189141;80;21461;-59
2022/08/29 04:51:48;;;;;;;21.95;9.10;;;;;;;18.92;100.00;98897.47;2207381;80;21590;-60
2022/08/29 04:54:49;;;;;;;22.90;10.60;;;;;;;18.78;100.00;98898.77;2206660;80;21092;-58
2022/08/29 04:57:49;;;;;;;28.23;13.98;;;;;;;18.65;100.00;98903.89;2190478;81;20993;-60
2022/08/29 05:00:50;;;;;;;28.73;13.25;;;;;;;18.58;100.00;98903.28;2281677;77;21001;-59
2022/08/29 05:03:53;;;;;;;30.40;15.05;;;;;;;18.52;100.00;98905.52;2190590;81;21038;-59
2022/08/29 05:06:53;;;;;;;28.90;15.45;;;;;;;18.47;100.00;98907.75;2161830;81;21022;-58
2022/08/29 05:09:54;;;;;;;31.35;15.65;;;;;;;18.41;100.00;98915.47;2278416;77;22320;-59
2022/08/29 05:12:54;;;;;;;31.57;16.35;;;;;;;18.41;100.00;98926.92;2189818;80;20982;-57
2022/08/29 05:15:55;;;;;;;33.10;18.00;;;;;;;18.37;100.00;98919.38;2282459;77;20989;-59
2022/08/29 05:18:55;;;;;;;32.67;17.25;;;;;;;18.33;100.00;98927.63;2192881;81;21059;-59
2022/08/29 05:21:57;;;;;;;35.03;18.12;;;;;;;18.40;100.00;98934.52;2203892;80;20996;-60
2022/08/29 05:24:59;;;;;;;32.75;18.67;;;;;;;18.32;100.00;98927.77;2197130;80;21037;-60
2022/08/29 05:27:59;;;;;;;32.30;17.60;;;;;;;18.38;100.00;98933.84;2282621;77;21005;-59
2022/08/29 05:31:00;;;;;;;30.10;17.37;;;;;;;18.43;100.00;98929.43;2279291;77;21519;-57
2022/08/29 05:34:01;;;;;;;30.65;17.12;;;;;;;18.51;100.00;98932.22;2270863;77;20996;-58
2022/08/29 05:37:01;;;;;;;28.55;16.12;;;;;;;18.45;100.00;98945.58;2278814;77;21043;-57
2022/08/29 05:40:02;;;;;;;33.50;16.97;;;;;;;18.50;100.00;98950.45;2185561;81;21098;-57
2022/08/29 05:43:03;;;;;;;28.65;15.05;;;;;;;18.58;100.00;98943.95;2283037;77;21515;-57
2022/08/29 05:46:03;;;;;;;30.60;15.68;;;;;;;18.60;100.00;98945.97;2188311;81;21528;-57
2022/08/29 05:49:04;;;;;;;28.62;14.98;;;;;;;18.59;100.00;98946.97;2228350;79;20994;-58
2022/08/29 05:52:05;;;;;;;27.27;13.78;;;;;;;18.70;100.00;98940.17;2230997;79;21017;-57
2022/08/29 05:55:05;;;;;;;27.80;13.00;;;;;;;18.75;100.00;98944.19;2228353;79;21017;-59
2022/08/29 05:58:06;;;;;;;27.35;13.15;;;;;;;18.75;100.00;98943.72;2228101;79;21024;-59
2022/08/29 06:01:06;;;;;;;29.02;13.90;;;;;;;18.76;100.00;98950.72;2230573;79;21494;-58
2022/08/29 06:04:07;;;;;;;27.87;14.65;;;;;;;18.89;100.00;98949.59;2228301;79;21079;-57
2022/08/29 06:07:08;;;;;;;31.70;14.70;;;;;;;18.83;100.00;98947.84;2228697;79;21111;-57
2022/08/29 06:10:08;;;;;;;29.87;14.00;;;;;;;18.87;100.00;98957.70;2228936;79;20973;-57
2022/08/29 06:13:09;;;;;;;27.55;13.55;;;;;;;18.99;100.00;98959.23;2229149;79;21004;-57
2022/08/29 06:16:09;;;;;;;24.60;13.38;;;;;;;18.98;100.00;98972.16;2230012;79;21522;-57
2022/08/29 06:19:10;;;;;;;25.35;13.18;;;;;;;18.93;100.00;98981.04;2228992;79;21001;-57
2022/08/29 06:22:11;;;;;;;25.77;13.28;;;;;;;19.23;100.00;98978.31;2264047;78;20966;-57
2022/08/29 06:25:12;;;;;;;28.95;13.50;;;;;;;19.16;100.00;98985.52;2255060;78;21016;-57
2022/08/29 06:28:12;;;;;;;25.40;13.25;;;;;;;19.56;100.00;98985.72;2251484;78;21115;-58
2022/08/29 06:31:13;;;;;;;27.13;12.93;;;;;;;19.72;100.00;98991.76;2244100;78;21491;-58
2022/08/29 06:34:14;;;;;;;24.63;12.45;;;;;;;19.70;100.00;99004.35;2250589;79;21008;-57
2022/08/29 06:37:14;;;;;;;26.10;12.60;;;;;;;19.45;100.00;98996.58;2251895;78;21022;-59
2022/08/29 06:40:15;;;;;;;27.50;13.07;;;;;;;19.38;100.00;99000.80;2234956;79;21001;-58
2022/08/29 06:43:16;;;;;;;24.20;11.55;;;;;;;19.60;100.00;99000.91;2206105;80;21000;-57
2022/08/29 06:46:16;;;;;;;26.97;12.73;;;;;;;19.77;100.00;99017.06;2229269;78;20981;-56
2022/08/29 06:49:17;;;;;;;23.92;11.05;;;;;;;19.89;100.00;99007.93;2224206;78;20979;-56
2022/08/29 06:52:18;;;;;;;23.57;11.25;;;;;;;20.20;100.00;99019.09;2198285;79;21528;-57
2022/08/29 06:55:18;;;;;;;23.87;10.53;;;;;;;20.31;100.00;99028.67;2184885;80;21578;-59
2022/08/29 06:58:19;;;;;;;25.27;11.33;;;;;;;20.25;100.00;99036.77;2205099;80;21041;-59
2022/08/29 07:01:19;;;;;;;24.98;11.53;;;;;;;20.49;100.00;99041.19;2199442;80;21444;-57
2022/08/29 07:04:20;;;;;;;21.97;10.30;;;;;;;20.58;100.00;99041.08;2201975;80;21074;-59
2022/08/29 07:07:20;;;;;;;24.82;10.18;;;;;;;20.67;100.00;99040.69;2193283;80;21103;-59
2022/08/29 07:10:21;;;;;;;22.60;10.10;;;;;;;20.40;100.00;99057.08;2200938;80;20974;-60
2022/08/29 07:13:21;;;;;;;23.92;10.82;;;;;;;20.19;100.00;99063.18;2198287;80;21514;-59
2022/08/29 07:16:22;;;;;;;25.48;10.55;;;;;;;20.02;100.00;99060.81;2191720;80;21094;-59
2022/08/29 07:19:22;;;;;;;22.13;9.38;;;;;;;20.17;100.00;99059.34;2243646;78;20983;-59
2022/08/29 07:22:25;;;;;;;23.42;9.65;;;;;;;20.37;100.00;99060.05;2253937;77;21004;-59
2022/08/29 07:25:26;;;;;;;22.35;9.23;;;;;;;20.70;100.00;99055.55;2253764;78;21040;-59
2022/08/29 07:28:29;;;;;;;24.18;8.70;;;;;;;20.70;100.00;99055.55;2258102;78;21487;-58
2022/08/29 07:31:29;;;;;;;20.88;7.92;;;;;;;20.76;100.00;99084.27;2241535;78;21613;-60
2022/08/29 07:34:29;;;;;;;21.90;8.03;;;;;;;20.76;100.00;99084.27;2258217;78;20946;-59
2022/08/29 07:37:30;;;;;;;21.23;7.42;;;;;;;20.76;100.00;99073.61;2254180;78;21016;-59
2022/08/29 07:40:31;;;;;;;22.40;7.50;;;;;;;20.78;100.00;99085.45;2256760;78;21070;-59
2022/08/29 07:43:31;;;;;;;23.75;7.60;;;;;;;20.96;100.00;99073.42;2255462;78;20990;-59
2022/08/29 07:46:31;;;;;;;21.45;7.55;;;;;;;21.06;100.00;99068.83;2255754;78;21081;-59
2022/08/29 07:49:32;;;;;;;20.23;6.70;;;;;;;21.05;100.00;99083.18;2280573;77;21017;-59
2022/08/29 07:52:33;;;;;;;21.00;6.90;;;;;;;21.03;100.00;99075.34;2281753;77;21621;-59
2022/08/29 07:55:34;;;;;;;20.45;6.47;;;;;;;20.91;100.00;99097.38;2210067;79;21318;-59
2022/08/29 07:58:35;;;;;;;18.98;6.20;;;;;;;20.92;100.00;99101.73;2211322;80;20985;-58
2022/08/29 08:01:35;;;;;;;21.65;6.28;;;;;;;21.10;100.00;99082.20;2200341;80;21092;-59
2022/08/29 08:04:36;;;;;;;19.17;6.20;;;;;;;21.28;100.00;99076.34;2215630;79;21533;-59
2022/08/29 08:07:37;;;;;;;21.40;6.08;;;;;;;21.53;100.00;99076.52;2223800;78;21080;-59
2022/08/29 08:10:37;;;;;;;17.13;5.30;;;;;;;21.57;100.00;99082.39;2250637;78;20995;-59
2022/08/29 08:13:38;;;;;;;23.30;5.87;;;;;;;21.67;100.00;99078.28;2198438;80;21024;-58
2022/08/29 08:16:38;;;;;;;18.40;5.70;;;;;;;21.71;100.00;99083.64;2206323;80;21056;-59
2022/08/29 08:19:39;;;;;;;18.50;5.45;;;;;;;21.39;100.00;99097.94;2204913;78;21029;-56
2022/08/29 08:22:40;;;;;;;18.62;5.25;;;;;;;21.11;100.00;99094.55;2211350;80;21104;-59
2022/08/29 08:25:41;;;;;;;18.85;5.12;;;;;;;20.85;100.00;99105.17;2207418;80;21501;-58
2022/08/29 08:28:41;;;;;;;17.75;5.03;;;;;;;20.62;100.00;99094.92;2238741;78;20989;-58
2022/08/29 08:31:42;;;;;;;20.12;4.80;;;;;;;20.87;100.00;99096.52;2251482;79;21091;-58
2022/08/29 08:34:43;;;;;;;18.55;4.28;;;;;;;21.37;100.00;99099.08;2240360;78;21016;-60
2022/08/29 08:37:43;;;;;;;17.07;4.70;;;;;;;21.68;100.00;99103.47;2253317;79;21037;-57
2022/08/29 08:40:44;;;;;;;19.67;4.80;;;;;;;21.84;100.00;99107.20;2255160;79;21092;-57
2022/08/29 08:43:44;;;;;;;17.77;4.87;;;;;;;22.03;100.00;99112.82;2250054;79;21087;-58
2022/08/29 08:46:46;;;;;;;19.83;5.23;;;;;;;22.04;100.00;99099.78;2249615;79;21933;-58
2022/08/29 08:49:48;;;;;;;;;;;;;;;21.94;100.00;99103.43;2252952;78;20965;-58
2022/08/29 08:52:49;;;;;;;;;;;;;;;21.99;100.00;99098.94;2251992;78;20106;-58
2022/08/29 08:55:50;;;;;;;17.15;4.17;;;;;;;22.32;100.00;99100.39;2247430;79;20094;-60
2022/08/29 08:58:51;;;;;;;17.57;4.13;;;;;;;22.28;100.00;99104.38;2247240;79;21000;-59
2022/08/29 09:01:51;;;;;;;15.33;3.43;;;;;;;22.36;100.00;99111.64;2239834;78;21036;-60
2022/08/29 09:04:52;;;;;;;18.43;4.27;;;;;;;22.31;100.00;99126.28;2287119;77;22201;-58
2022/08/29 09:07:52;;;;;;;16.03;4.13;;;;;;;22.10;100.00;99118.69;2283914;77;21055;-57
2022/08/29 09:10:53;;;;;;;21.73;6.00;;;;;;;21.89;100.00;99112.41;2284277;77;21100;-57
2022/08/29 09:13:53;;;;;;;18.27;4.70;;;;;;;21.65;100.00;99114.95;2275070;77;21035;-59
2022/08/29 09:16:54;;;;;;;21.63;4.33;;;;;;;21.92;100.00;99120.60;2283896;77;21004;-57
2022/08/29 09:19:54;;;;;;;15.77;3.90;;;;;;;22.13;100.00;99106.34;2280794;77;21018;-57
2022/08/29 09:22:54;;;;;;;15.90;3.93;;;;;;;22.40;100.00;99104.47;2283698;77;21051;-58
2022/08/29 09:25:55;;;;;;;15.30;3.60;;;;;;;22.66;100.00;99096.84;2279754;77;21483;-58
2022/08/29 09:28:57;;;;;;;15.97;3.77;;;;;;;22.54;100.00;99100.81;2285091;77;21059;-59
2022/08/29 09:31:58;;;;;;;13.00;3.30;;;;;;;22.44;100.00;99123.19;2282639;77;20985;-59
2022/08/29 09:34:58;;;;;;;16.63;4.10;;;;;;;22.44;100.00;99099.61;2242662;77;21611;-59
2022/08/29 09:37:59;;;;;;;16.13;3.60;;;;;;;22.58;100.00;99098.98;2236307;79;21485;-58
2022/08/29 09:40:59;;;;;;;15.70;3.40;;;;;;;22.67;100.00;99115.89;2236237;79;21057;-60
2022/08/29 09:44:00;;;;;;;18.37;3.97;;;;;;;22.63;100.00;99124.73;2236851;79;21093;-58
2022/08/29 09:47:01;;;;;;;15.50;3.83;;;;;;;22.61;100.00;99113.38;2236067;79;21104;-59
2022/08/29 09:50:01;;;;;;;21.77;4.17;;;;;;;22.80;100.00;99100.20;2237654;79;20986;-59
2022/08/29 09:53:02;;;;;;;18.60;3.87;;;;;;;23.08;100.00;99115.08;2198875;80;21611;-59
2022/08/29 09:56:03;;;;;;;17.87;3.87;;;;;;;22.75;100.00;99107.03;2203063;80;21499;-59
2022/08/29 09:59:04;;;;;;;19.35;3.95;;;;;;;22.34;100.00;99106.94;2203712;79;21298;-58
2022/08/29 10:02:04;;;;;;;18.13;4.00;;;;;;;22.21;100.00;99122.91;2207478;80;20963;-59
2022/08/29 10:05:05;;;;;;;16.57;3.83;;;;;;;22.38;100.00;99106.44;2207961;80;20970;-59
2022/08/29 10:08:06;;;;;;;16.30;3.77;;;;;;;22.57;100.00;99095.13;2213355;77;21079;-59
2022/08/29 10:11:07;;;;;;;17.83;3.93;;;;;;;22.96;100.00;99095.35;2227635;79;21020;-59
2022/08/29 10:14:08;;;;;;;17.48;3.90;;;;;;;22.90;100.00;99096.03;2267732;77;20999;-58
2022/08/29 10:20:11;;;;;;;16.82;3.60;;;;;;;22.71;100.00;99101.68;2251048;77;21015;-59
2022/08/29 10:23:11;;;;;;;17.87;4.17;;;;;;;22.52;100.00;99102.83;2265294;78;21343;-59
2022/08/29 10:26:12;;;;;;;15.03;3.97;;;;;;;22.18;100.00;99099.17;2258427;78;21002;-59
2022/08/29 10:29:13;;;;;;;15.30;3.43;;;;;;;22.45;100.00;99111.47;2267106;78;20979;-59
2022/08/29 10:32:13;;;;;;;18.05;3.90;;;;;;;22.51;100.00;99099.80;2258905;78;21019;-59
2022/08/29 10:35:14;;;;;;;16.47;3.67;;;;;;;22.74;100.00;99091.50;2267290;78;20978;-59
2022/08/29 10:38:14;;;;;;;18.67;3.50;;;;;;;23.03;100.00;99100.88;2268372;78;21493;-59
2022/08/29 10:41:15;;;;;;;14.90;3.67;;;;;;;23.01;100.00;99099.71;2268541;78;21446;-59
2022/08/29 10:44:16;;;;;;;13.53;3.03;;;;;;;22.84;100.00;99096.67;2266436;78;21011;-58
2022/08/29 10:47:16;;;;;;;13.90;3.53;;;;;;;22.75;100.00;99099.02;2265409;78;21498;-57
2022/08/29 10:50:17;;;;;;;19.37;3.77;;;;;;;23.09;100.00;99092.17;2267106;78;21106;-57
2022/08/29 10:53:17;;;;;;;17.20;3.47;;;;;;;23.36;100.00;99090.19;2268719;78;21044;-59
2022/08/29 10:56:18;;;;;;;16.87;3.87;;;;;;;23.44;100.00;99100.86;2267718;78;20948;-59
2022/08/29 10:59:18;;;;;;;16.07;3.70;;;;;;;23.64;100.00;99093.28;2266838;78;21041;-59
2022/08/29 11:02:19;;;;;;;15.03;3.57;;;;;;;23.61;100.00;99098.98;2267024;78;21469;-59
2022/08/29 11:05:20;;;;;;;13.97;3.47;;;;;;;23.77;100.00;99096.77;2268739;78;21044;-59
2022/08/29 11:08:20;;;;;;;16.40;3.50;;;;;;;23.90;100.00;99092.75;2268390;78;21458;-59
2022/08/29 11:11:21;;;;;;;16.97;3.47;;;;;;;23.94;100.00;99079.34;2269381;77;20971;-59
2022/08/29 11:14:22;;;;;;;15.08;3.55;;;;;;;24.00;100.00;99100.89;2268636;78;21592;-59
2022/08/29 11:17:22;;;;;;;19.27;3.83;;;;;;;23.77;100.00;99095.42;2267087;78;20987;-59
2022/08/29 11:20:23;;;;;;;19.70;4.03;;;;;;;23.61;100.00;99107.02;2266391;78;21002;-60
2022/08/29 11:23:23;;;;;;;18.07;4.10;;;;;;;23.70;100.00;99094.45;2268278;78;21002;-59
2022/08/29 11:26:24;;;;;;;21.67;4.43;;;;;;;23.56;100.00;99093.33;2268727;78;21074;-59
2022/08/29 11:29:25;;;;;;;22.77;4.87;;;;;;;24.04;100.00;99088.00;2267015;78;20924;-59
2022/08/29 11:32:26;;;;;;;15.63;3.80;;;;;;;24.49;100.00;99087.75;2267106;78;21022;-59
2022/08/29 11:35:27;;;;;;;18.33;4.00;;;;;;;24.13;100.00;99092.30;2267748;78;21047;-59
2022/08/29 11:38:28;;;;;;;15.73;4.07;;;;;;;23.60;100.00;99097.83;2267201;77;21067;-59
2022/08/29 11:41:29;;;;;;;21.65;4.78;;;;;;;23.13;100.00;99097.56;2267364;78;21051;-59
2022/08/29 11:44:29;;;;;;;16.50;3.80;;;;;;;23.16;100.00;99105.25;2267830;78;20992;-57
2022/08/29 11:47:30;;;;;;;20.87;4.53;;;;;;;23.12;100.00;99110.59;2267377;78;21489;-58
2022/08/29 11:50:31;;;;;;;16.20;3.80;;;;;;;23.24;100.00;99102.23;2266549;78;20935;-56
2022/08/29 11:53:33;;;;;;;21.00;4.55;;;;;;;23.70;100.00;99101.99;2267134;78;20983;-56
2022/08/29 11:56:33;;;;;;;19.95;4.40;;;;;;;23.95;100.00;99094.39;2267609;78;21101;-57
2022/08/29 11:59:34;;;;;;;17.23;4.00;;;;;;;23.60;100.00;99135.30;2267223;78;20994;-59
2022/08/29 12:02:35;;;;;;;18.73;4.23;;;;;;;23.77;100.00;99120.05;2267413;78;20991;-60
2022/08/29 12:05:35;;;;;;;22.60;3.42;;;;;;;23.88;100.00;99094.27;2266462;78;21051;-60
2022/08/29 12:08:36;;;;;;;14.93;3.77;;;;;;;24.00;100.00;99102.75;2266776;78;21043;-59
2022/08/29 12:11:37;;;;;;;17.13;3.83;;;;;;;23.94;100.00;99101.59;2266717;78;20948;-59
2022/08/29 12:14:37;;;;;;;16.53;3.90;;;;;;;23.82;100.00;99086.87;2266631;78;21461;-59
2022/08/29 12:17:38;;;;;;;18.57;4.20;;;;;;;23.92;100.00;99110.33;2267534;78;21003;-60
2022/08/29 12:20:39;;;;;;;14.07;4.17;;;;;;;23.60;100.00;99101.84;2264152;78;21010;-58
2022/08/29 12:23:40;;;;;;;17.48;3.92;;;;;;;23.17;100.00;99118.97;2268423;78;21007;-59
2022/08/29 12:26:41;;;;;;;11.35;3.40;;;;;;;23.41;100.00;99108.41;2266954;78;21146;-58
2022/08/29 12:29:41;;;;;;;19.47;3.70;;;;;;;23.77;100.00;99094.60;2266603;77;20983;-58
2022/08/29 12:32:41;;;;;;;14.07;3.40;;;;;;;23.86;100.00;99103.81;2267053;78;20966;-59
2022/08/29 12:35:42;;;;;;;16.93;3.57;;;;;;;24.43;100.00;99080.42;2269163;77;20979;-59
2022/08/29 12:38:48;;;;;;;12.87;3.40;;;;;;;24.79;100.00;99093.28;2264549;77;21055;-60
2022/08/29 12:41:47;;;;;;;17.90;3.80;;;;;;;24.90;100.00;99100.09;2240332;78;20994;-59
2022/08/29 12:44:47;;;;;;;18.75;3.98;;;;;;;25.02;100.00;99085.22;2234886;78;21581;-59
2022/08/29 12:47:48;;;;;;;13.90;3.57;;;;;;;25.20;100.00;99092.95;2266841;78;21054;-59
2022/08/29 12:50:49;;;;;;;18.02;3.40;;;;;;;25.10;100.00;99080.80;2266211;77;21076;-59
2022/08/29 12:53:49;;;;;;;15.90;3.35;;;;;;;25.35;100.00;99080.92;2268121;77;21083;-59
2022/08/29 12:56:52;;;;;;;17.75;4.22;;;;;;;25.29;100.00;99090.20;2267942;78;21539;-60
2022/08/29 12:59:52;;;;;;;;;;;;;;;25.64;100.00;99090.55;2271293;78;21042;-60
2022/08/29 13:02:53;;;;;;;15.80;3.40;;;;;;;25.74;100.00;99098.63;2268477;78;20144;-59
2022/08/29 13:05:53;;;;;;;14.20;3.80;;;;;;;25.58;100.00;99072.80;2264523;78;21056;-60
2022/08/29 13:08:53;;;;;;;15.13;3.53;;;;;;;25.28;100.00;99095.24;2267047;77;20991;-59
2022/08/29 13:11:54;;;;;;;13.87;3.47;;;;;;;25.02;100.00;99095.95;2267502;78;21074;-59
2022/08/29 13:14:55;;;;;;;18.03;3.53;;;;;;;24.24;100.00;99099.62;2267258;78;21014;-59
2022/08/29 13:17:55;;;;;;;13.63;3.60;;;;;;;23.61;100.00;99098.16;2268369;78;20984;-58
2022/08/29 13:20:56;;;;;;;19.32;4.17;;;;;;;23.21;100.00;99094.03;2267563;77;21015;-59
2022/08/29 13:23:57;;;;;;;15.40;3.87;;;;;;;23.18;100.00;99093.86;2266937;78;22256;-59
2022/08/29 13:26:57;;;;;;;14.03;4.00;;;;;;;23.64;100.00;99096.48;2269467;78;20987;-59
2022/08/29 13:29:58;;;;;;;21.23;4.37;;;;;;;23.59;100.00;99097.48;2267569;78;20962;-59
2022/08/29 13:32:58;;;;;;;13.87;3.40;;;;;;;23.63;100.00;99095.66;2267586;78;21002;-59
2022/08/29 13:35:59;;;;;;;16.10;3.57;;;;;;;23.70;100.00;99116.72;2266595;78;20967;-59
2022/08/29 13:38:59;;;;;;;17.33;3.93;;;;;;;23.83;100.00;99087.20;2268074;78;21023;-57
2022/08/29 13:42:00;;;;;;;15.90;3.60;;;;;;;24.04;100.00;99096.86;2267619;78;21469;-59
2022/08/29 13:45:00;;;;;;;21.90;3.47;;;;;;;24.08;100.00;99107.23;2265906;78;20958;-59
2022/08/29 13:48:01;;;;;;;16.57;3.50;;;;;;;23.87;100.00;99105.46;2264394;78;20975;-57
2022/08/29 13:51:02;;;;;;;9.67;3.13;;;;;;;23.86;100.00;99086.41;2268187;78;20998;-59
2022/08/29 13:54:03;;;;;;;15.75;3.60;;;;;;;23.71;100.00;99088.09;2266462;78;21082;-58
2022/08/29 13:57:03;;;;;;;14.13;3.53;;;;;;;23.82;100.00;99084.19;2267804;78;21010;-58